Time;durP1;ratioP1;P1;durP2;ratioP2;P2;SDS_P1;SDS_P2;PMS_P1;PMS_P2;Temp;Humidity;BMP_temperature;BMP_pressure;BME280_temperature;BME280_humidity;BME280_pressure;Samples;Min_cycle;Max_cycle;Signal;HPM_P1;HPM_P2
2022/05/23 00:01:14;;;;;;;4.25;2.47;;;;;;;;;;7331805;19;161824;-17
2022/05/23 00:03:46;;;;;;;3.33;2.10;;;;;;;;;;7332163;19;162499;-17
2022/05/23 00:06:20;;;;;;;2.05;1.75;;;;;;;;;;7332650;19;154311;-17
2022/05/23 00:08:54;;;;;;;2.65;1.70;;;;;;;;;;7332624;19;153605;-17
2022/05/23 00:11:25;;;;;;;2.42;1.80;;;;;;;;;;7329613;19;161880;-18
2022/05/23 00:13:56;;;;;;;2.10;1.70;;;;;;;;;;7331769;19;162771;-17
2022/05/23 00:16:36;;;;;;;2.65;1.73;;;;;;;;;;7332231;19;154064;-17
2022/05/23 00:19:09;;;;;;;2.33;2.00;;;;;;;;;;7330225;19;153612;-18
2022/05/23 00:21:41;;;;;;;2.47;1.98;;;;;;;;;;7331802;19;162285;-19
2022/05/23 00:24:18;;;;;;;3.40;1.92;;;;;;;;;;7329060;19;162405;-17
2022/05/23 00:26:53;;;;;;;1.55;1.45;;;;;;;;;;7331453;19;154353;-17
2022/05/23 00:29:24;;;;;;;2.30;1.60;;;;;;;;;;7332026;19;153515;-18
2022/05/23 00:37:23;;;;;;;1.48;1.38;;;;;;;;;;7330711;19;153983;-19
2022/05/23 00:39:57;;;;;;;1.77;1.55;;;;;;;;;;7329132;19;153572;-18
2022/05/23 00:45:18;;;;;;;2.67;1.55;;;;;;;;;;7331386;19;162359;-18
2022/05/23 00:47:52;;;;;;;1.75;1.60;;;;;;;;;;7332865;19;153999;-18
2022/05/23 00:50:32;;;;;;;2.65;1.50;;;;;;;;;;7331448;19;153661;-19
2022/05/23 00:53:04;;;;;;;4.35;1.33;;;;;;;;;;7331070;19;162005;-18
2022/05/23 00:55:42;;;;;;;4.88;1.90;;;;;;;;;;7325913;19;162479;-18
2022/05/23 00:58:21;;;;;;;2.45;1.30;;;;;;;;;;7331984;19;154638;-18
2022/05/23 01:00:54;;;;;;;3.17;1.45;;;;;;;;;;7333842;19;153722;-18
2022/05/23 01:03:25;;;;;;;2.60;1.67;;;;;;;;;;7329665;19;162121;-18
2022/05/23 01:05:57;;;;;;;2.80;1.58;;;;;;;;;;7328215;19;162608;-18
2022/05/23 01:08:29;;;;;;;1.77;1.50;;;;;;;;;;7329718;19;154085;-19
2022/05/23 01:11:03;;;;;;;1.77;1.25;;;;;;;;;;7327307;19;153602;-18
2022/05/23 01:13:35;;;;;;;3.10;1.80;;;;;;;;;;7329274;19;162024;-17
2022/05/23 01:16:07;;;;;;;1.75;1.40;;;;;;;;;;7330365;19;162573;-18
2022/05/23 01:18:45;;;;;;;1.88;1.42;;;;;;;;;;7328560;19;154284;-18
2022/05/23 01:21:30;;;;;;;3.25;1.50;;;;;;;;;;7329531;19;153743;-18
2022/05/23 01:24:08;;;;;;;2.22;1.30;;;;;;;;;;7329024;19;162123;-18
2022/05/23 01:26:50;;;;;;;3.00;1.52;;;;;;;;;;7328881;19;162499;-19
2022/05/23 01:29:40;;;;;;;2.40;1.58;;;;;;;;;;7329394;19;154084;-24
2022/05/23 01:32:16;;;;;;;1.90;1.37;;;;;;;;;;7329287;19;153310;-19
2022/05/23 01:34:51;;;;;;;1.48;1.38;;;;;;;;;;7328752;19;161876;-18
2022/05/23 01:37:24;;;;;;;1.35;1.23;;;;;;;;;;7328713;19;162604;-18
2022/05/23 01:40:21;;;;;;;2.08;1.50;;;;;;;;;;7326449;19;154112;-17
2022/05/23 01:43:00;;;;;;;2.00;1.73;;;;;;;;;;7328669;19;153692;-18
2022/05/23 01:45:36;;;;;;;3.50;1.60;;;;;;;;;;7328481;19;161581;-18
2022/05/23 01:48:20;;;;;;;2.40;1.35;;;;;;;;;;7328200;19;162470;-19
2022/05/23 01:50:52;;;;;;;1.63;1.35;;;;;;;;;;7328619;19;154170;-18
2022/05/23 01:53:23;;;;;;;1.60;1.50;;;;;;;;;;7329786;19;153498;-18
2022/05/23 01:56:05;;;;;;;1.88;1.52;;;;;;;;;;7327940;19;162278;-19
2022/05/23 02:01:44;;;;;;;1.33;1.17;;;;;;;;;;7329347;19;154007;-19
2022/05/23 02:04:24;;;;;;;3.60;1.33;;;;;;;;;;7327984;19;153649;-18
2022/05/23 02:06:55;;;;;;;1.70;1.50;;;;;;;;;;7327646;19;161975;-18
2022/05/23 02:09:30;;;;;;;1.55;1.10;;;;;;;;;;7326787;19;162336;-18
2022/05/23 02:12:21;;;;;;;1.60;1.40;;;;;;;;;;7327963;19;154249;-18
2022/05/23 02:14:57;;;;;;;2.90;1.38;;;;;;;;;;7327810;19;153584;-19
2022/05/23 02:17:56;;;;;;;1.45;1.30;;;;;;;;;;7327325;19;161752;-18
2022/05/23 02:20:29;;;;;;;1.90;1.38;;;;;;;;;;7333212;19;162389;-19
2022/05/23 02:23:00;;;;;;;1.73;1.45;;;;;;;;;;7335514;19;154127;-18
2022/05/23 02:25:32;;;;;;;1.53;1.33;;;;;;;;;;7334357;19;153586;-19
2022/05/23 02:28:20;;;;;;;2.08;1.38;;;;;;;;;;7333926;19;161859;-18
2022/05/23 02:30:54;;;;;;;1.58;1.48;;;;;;;;;;7334014;19;162516;-19
2022/05/23 02:33:42;;;;;;;1.92;1.27;;;;;;;;;;7334287;19;153831;-18
2022/05/23 02:36:43;;;;;;;2.42;1.27;;;;;;;;;;7334564;19;153604;-18
2022/05/23 02:39:17;;;;;;;2.17;1.60;;;;;;;;;;7333345;19;162091;-19
2022/05/23 02:41:52;;;;;;;1.95;1.20;;;;;;;;;;7333671;19;162541;-18
2022/05/23 02:44:27;;;;;;;1.30;1.30;;;;;;;;;;7333948;19;154098;-18
2022/05/23 02:47:01;;;;;;;1.60;1.35;;;;;;;;;;7334005;19;153672;-19
2022/05/23 02:49:34;;;;;;;1.52;1.42;;;;;;;;;;7333516;19;161785;-19
2022/05/23 02:52:07;;;;;;;1.48;1.38;;;;;;;;;;7333476;19;162537;-19
2022/05/23 02:54:58;;;;;;;1.30;1.20;;;;;;;;;;7335120;19;154276;-18
2022/05/23 02:57:31;;;;;;;1.85;1.30;;;;;;;;;;7333690;19;153540;-18
2022/05/23 03:00:03;;;;;;;1.60;1.38;;;;;;;;;;7332211;19;161859;-18
2022/05/23 03:05:21;;;;;;;2.08;1.33;;;;;;;;;;7333132;19;154156;-17
2022/05/23 03:07:53;;;;;;;2.57;1.60;;;;;;;;;;7334359;19;153311;-17
2022/05/23 03:10:24;;;;;;;1.25;1.17;;;;;;;;;;7331278;19;162051;-16
2022/05/23 03:12:56;;;;;;;1.63;1.30;;;;;;;;;;7333728;19;162461;-17
2022/05/23 03:15:28;;;;;;;1.40;1.30;;;;;;;;;;7333120;19;154235;-17
2022/05/23 03:18:03;;;;;;;1.98;1.45;;;;;;;;;;7332798;19;153713;-16
2022/05/23 03:20:38;;;;;;;2.55;1.65;;;;;;;;;;7331214;19;162131;-17
2022/05/23 03:28:39;;;;;;;1.67;1.42;;;;;;;;;;7332633;19;153524;-17
2022/05/23 03:31:11;;;;;;;1.98;1.80;;;;;;;;;;7331222;19;161943;-17
2022/05/23 03:33:45;;;;;;;1.70;1.60;;;;;;;;;;7333202;19;162355;-17
2022/05/23 03:36:17;;;;;;;1.80;1.15;;;;;;;;;;7332601;19;154533;-17
2022/05/23 03:38:48;;;;;;;1.40;1.30;;;;;;;;;;7332448;19;153696;-17
2022/05/23 03:41:20;;;;;;;1.80;1.20;;;;;;;;;;7331410;19;162008;-18
2022/05/23 03:43:54;;;;;;;1.33;1.23;;;;;;;;;;7331789;19;162286;-18
2022/05/23 03:46:25;;;;;;;1.77;1.48;;;;;;;;;;7332024;19;154083;-18
2022/05/23 03:49:01;;;;;;;;;;;;;;;;;;7332599;19;153642;-18
2022/05/23 03:51:32;;;;;;;2.35;1.40;;;;;;;;;;7332973;19;161925;-18
2022/05/23 03:54:03;;;;;;;1.80;1.33;;;;;;;;;;7332959;19;162502;-18
2022/05/23 03:56:35;;;;;;;1.85;1.30;;;;;;;;;;7331945;19;154051;-17
2022/05/23 03:59:06;;;;;;;1.33;1.23;;;;;;;;;;7331783;19;153498;-18
2022/05/23 04:01:48;;;;;;;1.30;1.20;;;;;;;;;;7329301;19;161874;-17
2022/05/23 04:04:34;;;;;;;1.30;1.20;;;;;;;;;;7331265;19;162404;-18
2022/05/23 04:07:30;;;;;;;1.45;1.20;;;;;;;;;;7330948;19;154177;-18
2022/05/23 04:10:11;;;;;;;1.60;1.50;;;;;;;;;;7330027;19;154991;-18
2022/05/23 04:12:43;;;;;;;1.20;1.02;;;;;;;;;;7331221;19;162054;-18
2022/05/23 04:15:15;;;;;;;1.48;1.17;;;;;;;;;;7331068;19;162525;-18
2022/05/23 04:17:47;;;;;;;1.75;1.20;;;;;;;;;;7331492;19;154044;-18
2022/05/23 04:20:21;;;;;;;1.02;0.98;;;;;;;;;;7330780;19;153652;-18
2022/05/23 04:23:08;;;;;;;1.52;1.38;;;;;;;;;;7330966;19;161608;-17
2022/05/23 04:25:42;;;;;;;1.30;1.20;;;;;;;;;;7330761;19;162759;-17
2022/05/23 04:28:15;;;;;;;1.45;1.33;;;;;;;;;;7331077;19;154214;-18
2022/05/23 04:30:48;;;;;;;1.65;1.42;;;;;;;;;;7330765;19;153845;-18
2022/05/23 04:36:11;;;;;;;2.53;1.45;;;;;;;;;;7330403;19;162447;-18
2022/05/23 04:38:46;;;;;;;1.52;1.23;;;;;;;;;;7330952;19;153710;-18
2022/05/23 04:41:19;;;;;;;0.80;0.80;;;;;;;;;;7327026;19;153653;-17
2022/05/23 04:44:00;;;;;;;1.50;1.40;;;;;;;;;;7330056;19;161923;-18
2022/05/23 04:46:31;;;;;;;1.20;1.10;;;;;;;;;;7330299;19;162566;-18
2022/05/23 04:52:09;;;;;;;1.48;1.38;;;;;;;;;;7331627;19;153656;-18
2022/05/23 04:54:45;;;;;;;1.30;1.20;;;;;;;;;;7330046;19;161925;-18
2022/05/23 04:57:17;;;;;;;1.20;1.10;;;;;;;;;;7329553;19;162827;-18
2022/05/23 04:59:48;;;;;;;1.52;1.30;;;;;;;;;;7329887;19;154336;-18
2022/05/23 05:02:25;;;;;;;0.98;0.98;;;;;;;;;;7327657;19;153908;-18
2022/05/23 05:05:00;;;;;;;1.42;1.20;;;;;;;;;;7329512;19;161976;-17
2022/05/23 05:07:34;;;;;;;1.30;1.20;;;;;;;;;;7329227;19;162392;-17
2022/05/23 05:10:08;;;;;;;1.08;1.02;;;;;;;;;;7328346;19;154026;-18
2022/05/23 05:12:40;;;;;;;1.30;1.20;;;;;;;;;;7329602;19;153572;-17
2022/05/23 05:15:14;;;;;;;1.23;1.20;;;;;;;;;;7329221;19;161838;-18
2022/05/23 05:17:45;;;;;;;1.10;1.00;;;;;;;;;;7329046;19;162824;-17
2022/05/23 05:20:18;;;;;;;1.13;1.02;;;;;;;;;;7329357;19;154017;-18
2022/05/23 05:23:01;;;;;;;1.05;1.00;;;;;;;;;;7327570;19;153536;-18
2022/05/23 05:25:54;;;;;;;1.30;1.10;;;;;;;;;;7330047;19;161575;-17
2022/05/23 05:28:32;;;;;;;0.90;0.90;;;;;;;;;;7328387;19;162562;-18
2022/05/23 05:31:07;;;;;;;1.50;1.40;;;;;;;;;;7332836;19;154456;-18
2022/05/23 05:33:43;;;;;;;2.22;1.15;;;;;;;;;;7328779;19;153549;-18
2022/05/23 05:36:18;;;;;;;4.53;1.60;;;;;;;;;;7329730;19;162098;-17
2022/05/23 05:38:55;;;;;;;4.45;1.70;;;;;;;;;;7328167;19;162454;-16
2022/05/23 05:41:31;;;;;;;2.85;1.63;;;;;;;;;;7327966;19;154104;-18
2022/05/23 05:44:06;;;;;;;4.03;1.50;;;;;;;;;;7329721;19;153614;-21
2022/05/23 05:46:44;;;;;;;2.65;1.67;;;;;;;;;;7328099;19;162104;-18
2022/05/23 05:49:29;;;;;;;3.45;1.85;;;;;;;;;;7327994;19;162685;-19
2022/05/23 05:52:13;;;;;;;3.33;1.48;;;;;;;;;;7327732;19;154068;-18
2022/05/23 05:54:57;;;;;;;3.67;1.35;;;;;;;;;;7328423;19;153593;-18
2022/05/23 05:57:29;;;;;;;3.20;1.48;;;;;;;;;;7328932;19;161821;-18
2022/05/23 06:00:09;;;;;;;3.22;1.60;;;;;;;;;;7327954;19;162508;-18
2022/05/23 06:02:47;;;;;;;3.05;1.48;;;;;;;;;;7327526;19;154423;-18
2022/05/23 06:05:23;;;;;;;2.92;1.63;;;;;;;;;;7327968;19;153606;-18
2022/05/23 06:13:51;;;;;;;2.30;1.60;;;;;;;;;;7328004;19;154374;-20
2022/05/23 06:16:40;;;;;;;4.95;1.90;;;;;;;;;;7327778;19;153590;-17
2022/05/23 06:19:22;;;;;;;4.65;1.60;;;;;;;;;;7327312;19;162153;-17
2022/05/23 06:22:07;;;;;;;4.13;1.83;;;;;;;;;;7326376;19;162533;-17
2022/05/23 06:24:44;;;;;;;4.30;1.63;;;;;;;;;;7327372;19;154629;-17
2022/05/23 06:27:18;;;;;;;2.53;1.80;;;;;;;;;;7327584;19;153468;-17
2022/05/23 06:29:52;;;;;;;4.10;2.05;;;;;;;;;;7327981;19;162042;-17
2022/05/23 06:32:43;;;;;;;4.10;1.83;;;;;;;;;;7328038;19;162408;-22
2022/05/23 06:35:18;;;;;;;4.90;1.95;;;;;;;;;;7327089;19;154048;-17
2022/05/23 06:37:53;;;;;;;2.92;1.63;;;;;;;;;;7327306;19;153629;-17
2022/05/23 06:40:50;;;;;;;3.28;1.98;;;;;;;;;;7327142;19;161666;-17
2022/05/23 06:44:01;;;;;;;2.97;1.73;;;;;;;;;;7324114;19;162474;-17
2022/05/23 06:46:51;;;;;;;3.45;2.25;;;;;;;;;;7328187;19;154076;-17
2022/05/23 06:49:48;;;;;;;4.65;1.83;;;;;;;;;;7328437;19;153948;-17
2022/05/23 06:52:42;;;;;;;4.32;1.90;;;;;;;;;;7326522;19;162172;-17
2022/05/23 06:55:34;;;;;;;3.00;1.70;;;;;;;;;;7327097;19;162474;-17
2022/05/23 06:58:06;;;;;;;2.77;1.67;;;;;;;;;;7326620;19;154021;-19
2022/05/23 07:00:41;;;;;;;1.75;1.35;;;;;;;;;;7326534;19;153552;-18
2022/05/23 07:03:18;;;;;;;3.55;1.80;;;;;;;;;;7324335;19;161981;-17
2022/05/23 07:14:27;;;;;;;2.40;1.45;;;;;;;;;;7333687;19;162009;-18
2022/05/23 07:17:05;;;;;;;1.95;1.52;;;;;;;;;;7332333;19;162253;-19
2022/05/23 07:19:56;;;;;;;3.45;1.83;;;;;;;;;;7334047;19;153797;-18
2022/05/23 07:22:28;;;;;;;2.97;1.63;;;;;;;;;;7332327;19;153489;-17
2022/05/23 07:25:02;;;;;;;2.13;1.52;;;;;;;;;;7332378;19;161890;-18
2022/05/23 07:27:34;;;;;;;3.50;1.73;;;;;;;;;;7332420;19;162705;-18
2022/05/23 07:30:06;;;;;;;4.72;1.67;;;;;;;;;;7332807;19;154271;-18
2022/05/23 07:32:50;;;;;;;1.53;1.40;;;;;;;;;;7332908;19;153624;-18
2022/05/23 07:35:42;;;;;;;4.07;1.80;;;;;;;;;;7333345;19;161895;-18
2022/05/23 07:38:14;;;;;;;2.83;1.48;;;;;;;;;;7333185;19;162405;-18
2022/05/23 07:40:50;;;;;;;2.92;1.30;;;;;;;;;;7332006;19;153932;-19
2022/05/23 07:43:28;;;;;;;1.20;1.10;;;;;;;;;;7331849;19;153558;-18
2022/05/23 07:46:09;;;;;;;5.03;1.60;;;;;;;;;;7332373;19;162239;-18
2022/05/23 07:48:46;;;;;;;3.13;1.33;;;;;;;;;;7331393;19;162488;-18
2022/05/23 07:51:21;;;;;;;2.53;1.40;;;;;;;;;;7331696;19;154354;-18
2022/05/23 08:02:20;;;;;;;1.35;1.25;;;;;;;;;;7331424;19;154116;-18
2022/05/23 08:05:07;;;;;;;3.22;1.23;;;;;;;;;;7334065;19;153710;-17
2022/05/23 08:07:43;;;;;;;4.22;1.35;;;;;;;;;;7331081;19;161955;-17
2022/05/23 08:10:14;;;;;;;3.35;1.73;;;;;;;;;;7333436;19;164843;-18
2022/05/23 08:12:52;;;;;;;2.15;1.50;;;;;;;;;;7331569;19;154347;-18
2022/05/23 08:15:27;;;;;;;2.65;1.40;;;;;;;;;;7334656;19;153595;-17
2022/05/23 08:18:05;;;;;;;2.80;1.70;;;;;;;;;;7333841;19;162069;-18
2022/05/23 08:20:42;;;;;;;4.45;1.88;;;;;;;;;;7333856;19;162565;-18
2022/05/23 08:23:15;;;;;;;2.22;1.80;;;;;;;;;;7330005;19;154223;-18
2022/05/23 08:26:06;;;;;;;2.40;1.23;;;;;;;;;;7330874;19;153796;-18
2022/05/23 08:28:42;;;;;;;2.42;1.23;;;;;;;;;;7330257;19;162245;-19
2022/05/23 08:31:15;;;;;;;2.90;1.50;;;;;;;;;;7330223;19;162345;-19
2022/05/23 08:34:07;;;;;;;3.22;1.40;;;;;;;;;;7332685;19;154037;-18
2022/05/23 08:36:41;;;;;;;4.00;2.17;;;;;;;;;;7333377;19;153596;-19
2022/05/23 08:39:13;;;;;;;2.33;1.70;;;;;;;;;;7330436;19;162049;-18
2022/05/23 08:42:03;;;;;;;6.32;1.58;;;;;;;;;;7332141;19;162598;-18
2022/05/23 08:44:57;;;;;;;1.77;1.25;;;;;;;;;;7331721;19;154130;-18
2022/05/23 08:47:36;;;;;;;1.92;1.40;;;;;;;;;;7334248;19;153708;-18
2022/05/23 08:50:18;;;;;;;2.17;1.15;;;;;;;;;;7331459;19;161877;-18
2022/05/23 08:52:59;;;;;;;1.73;1.27;;;;;;;;;;7334829;19;162578;-18
2022/05/23 08:55:51;;;;;;;2.72;1.63;;;;;;;;;;7330947;19;154028;-18
2022/05/23 08:58:54;;;;;;;2.08;1.35;;;;;;;;;;7334476;19;153715;-19
2022/05/23 09:01:28;;;;;;;1.90;1.58;;;;;;;;;;7327038;19;162194;-18
2022/05/23 09:04:16;;;;;;;3.45;1.63;;;;;;;;;;7330584;19;162432;-18
2022/05/23 09:06:50;;;;;;;3.40;1.50;;;;;;;;;;7329850;19;154101;-18
2022/05/23 09:09:29;;;;;;;3.28;1.42;;;;;;;;;;7329711;19;153489;-18
2022/05/23 09:12:09;;;;;;;1.52;1.35;;;;;;;;;;7330095;19;161740;-18
2022/05/23 09:14:46;;;;;;;2.58;1.60;;;;;;;;;;7332664;19;163803;-18
2022/05/23 09:17:25;;;;;;;3.00;1.35;;;;;;;;;;7330469;19;133083;-17
2022/05/23 09:20:02;;;;;;;5.15;1.67;;;;;;;;;;7330217;19;153538;-18
2022/05/23 09:22:43;;;;;;;1.98;1.42;;;;;;;;;;7331820;19;162028;-18
2022/05/23 09:25:20;;;;;;;3.33;1.38;;;;;;;;;;7327359;19;162340;-18
2022/05/23 09:28:02;;;;;;;4.25;1.48;;;;;;;;;;7330471;19;154263;-18
2022/05/23 09:30:36;;;;;;;2.17;1.30;;;;;;;;;;7333783;19;154393;-19
2022/05/23 09:33:14;;;;;;;2.45;1.20;;;;;;;;;;7327896;19;162182;-18
2022/05/23 09:35:56;;;;;;;2.45;1.90;;;;;;;;;;7327951;19;162424;-18
2022/05/23 09:38:29;;;;;;;3.03;1.73;;;;;;;;;;7334022;19;154225;-18
2022/05/23 09:50:13;;;;;;;3.05;1.38;;;;;;;;;;7333189;19;153983;-18
2022/05/23 09:52:57;;;;;;;2.47;1.60;;;;;;;;;;7329387;19;153783;-18
2022/05/23 09:55:31;;;;;;;2.60;1.45;;;;;;;;;;7332347;19;161965;-18
2022/05/23 09:58:11;;;;;;;1.73;1.48;;;;;;;;;;7327428;19;162144;-19
2022/05/23 10:01:02;;;;;;;3.53;1.58;;;;;;;;;;7327878;19;153795;-18
2022/05/23 10:03:37;;;;;;;8.52;1.92;;;;;;;;;;7331528;19;153624;-18
2022/05/23 10:06:11;;;;;;;3.22;1.30;;;;;;;;;;7324561;19;161882;-23
2022/05/23 10:08:45;;;;;;;4.47;1.52;;;;;;;;;;7331930;19;162677;-17
2022/05/23 10:11:56;;;;;;;4.13;1.25;;;;;;;;;;7325999;19;154178;-17
2022/05/23 10:14:44;;;;;;;1.45;1.35;;;;;;;;;;7331179;19;153722;-17
2022/05/23 10:17:28;;;;;;;2.22;1.33;;;;;;;;;;7329018;19;161623;-19
2022/05/23 10:20:20;;;;;;;1.58;1.25;;;;;;;;;;7326878;19;162400;-17
2022/05/23 10:23:03;;;;;;;1.25;1.13;;;;;;;;;;7328657;19;154159;-17
2022/05/23 10:25:40;;;;;;;7.15;1.25;;;;;;;;;;7327743;19;153627;-16
2022/05/23 10:28:16;;;;;;;4.90;1.30;;;;;;;;;;7332435;19;161836;-17
2022/05/23 10:31:02;;;;;;;2.22;1.40;;;;;;;;;;7328998;19;162719;-18
2022/05/23 10:33:37;;;;;;;1.60;1.17;;;;;;;;;;7326826;19;153907;-17
2022/05/23 10:36:16;;;;;;;1.42;1.33;;;;;;;;;;7328862;19;153666;-18
2022/05/23 10:44:37;;;;;;;1.52;1.02;;;;;;;;;;7337172;19;154010;-18
2022/05/23 10:47:27;;;;;;;1.60;1.10;;;;;;;;;;7336424;19;153562;-18
2022/05/23 10:50:09;;;;;;;3.30;1.48;;;;;;;;;;7336195;19;161874;-21
2022/05/23 10:52:49;;;;;;;2.47;1.35;;;;;;;;;;7335090;19;162448;-17
2022/05/23 10:55:26;;;;;;;2.58;1.33;;;;;;;;;;7336853;19;153813;-18
2022/05/23 10:58:11;;;;;;;1.50;1.30;;;;;;;;;;7337168;19;153526;-19
2022/05/23 11:00:52;;;;;;;2.05;1.23;;;;;;;;;;7334128;19;161860;-18
2022/05/23 11:03:35;;;;;;;1.70;1.30;;;;;;;;;;7333919;19;162590;-19
2022/05/23 11:06:18;;;;;;;1.80;1.08;;;;;;;;;;7333675;19;154157;-19
2022/05/23 11:09:04;;;;;;;1.75;0.93;;;;;;;;;;7339177;19;153492;-20
2022/05/23 11:11:53;;;;;;;4.15;1.40;;;;;;;;;;7336855;19;161829;-17
2022/05/23 11:14:34;;;;;;;2.35;1.20;;;;;;;;;;7333435;19;162459;-17
2022/05/23 11:17:13;;;;;;;6.13;1.10;;;;;;;;;;7333699;19;154278;-17
2022/05/23 11:20:03;;;;;;;2.47;1.30;;;;;;;;;;7334017;19;153461;-17
2022/05/23 11:22:38;;;;;;;2.08;1.05;;;;;;;;;;7335130;19;162011;-17
2022/05/23 11:25:28;;;;;;;1.40;1.30;;;;;;;;;;7332750;19;163057;-17
2022/05/23 11:33:49;;;;;;;4.63;1.48;;;;;;;;;;7333060;19;161810;-17
2022/05/23 11:36:45;;;;;;;2.88;1.30;;;;;;;;;;7333163;19;162648;-19
2022/05/23 11:39:44;;;;;;;1.95;1.15;;;;;;;;;;7334698;19;154146;-18
2022/05/23 11:42:30;;;;;;;2.10;1.00;;;;;;;;;;7333521;19;153915;-17
2022/05/23 11:48:39;;;;;;;2.53;1.42;;;;;;;;;;7330757;19;162433;-17
2022/05/23 11:51:15;;;;;;;1.80;1.38;;;;;;;;;;7330634;19;154008;-17
2022/05/23 11:53:59;;;;;;;1.67;1.50;;;;;;;;;;7333021;19;153536;-17
2022/05/23 11:56:51;;;;;;;1.65;1.30;;;;;;;;;;7331588;19;161918;-18
2022/05/23 11:59:55;;;;;;;3.22;1.30;;;;;;;;;;7332170;19;162628;-17
2022/05/23 12:02:29;;;;;;;3.15;1.45;;;;;;;;;;7331546;19;154079;-17
2022/05/23 12:05:31;;;;;;;3.67;1.55;;;;;;;;;;7332460;19;153497;-17
2022/05/23 12:08:34;;;;;;;2.05;1.40;;;;;;;;;;7330989;19;161842;-18
2022/05/23 12:11:24;;;;;;;1.70;1.50;;;;;;;;;;7329390;19;162568;-18
2022/05/23 12:13:58;;;;;;;3.95;1.20;;;;;;;;;;7331337;19;154451;-18
2022/05/23 12:17:05;;;;;;;2.25;1.25;;;;;;;;;;7332373;19;153775;-17
2022/05/23 12:19:53;;;;;;;2.40;1.20;;;;;;;;;;7336241;19;161838;-17
2022/05/23 12:22:32;;;;;;;2.08;1.20;;;;;;;;;;7330575;19;162333;-20
2022/05/23 12:25:24;;;;;;;3.22;1.52;;;;;;;;;;7332573;19;154080;-17
2022/05/23 12:28:23;;;;;;;1.75;1.40;;;;;;;;;;7333193;19;153670;-17
2022/05/23 12:31:15;;;;;;;2.63;1.50;;;;;;;;;;7335751;19;161819;-18
2022/05/23 12:33:52;;;;;;;3.83;1.50;;;;;;;;;;7331061;19;162576;-18
2022/05/23 12:36:28;;;;;;;2.85;1.60;;;;;;;;;;7332916;19;154181;-17
2022/05/23 12:39:18;;;;;;;3.10;1.42;;;;;;;;;;7335374;19;153581;-19
2022/05/23 12:41:57;;;;;;;4.13;1.60;;;;;;;;;;7331217;19;162027;-18
2022/05/23 12:44:58;;;;;;;4.43;1.42;;;;;;;;;;7328731;19;162379;-18
2022/05/23 12:47:45;;;;;;;1.85;1.13;;;;;;;;;;7330904;19;154292;-18
2022/05/23 12:50:26;;;;;;;4.25;1.42;;;;;;;;;;7334437;19;153616;-18
2022/05/23 12:53:16;;;;;;;1.65;1.10;;;;;;;;;;7331461;19;161798;-16
2022/05/23 12:56:06;;;;;;;1.48;1.20;;;;;;;;;;7332052;19;162569;-17
2022/05/23 12:58:50;;;;;;;2.72;1.40;;;;;;;;;;7334982;19;154094;-17
2022/05/23 13:01:27;;;;;;;2.28;1.27;;;;;;;;;;7332604;19;153576;-17
2022/05/23 13:04:09;;;;;;;1.58;1.30;;;;;;;;;;7330482;19;161907;-17
2022/05/23 13:06:49;;;;;;;2.75;1.30;;;;;;;;;;7331567;19;162463;-17
2022/05/23 13:09:26;;;;;;;2.72;1.13;;;;;;;;;;7332138;19;154207;-17
2022/05/23 13:12:00;;;;;;;2.28;1.30;;;;;;;;;;7333479;19;153548;-18
2022/05/23 13:14:51;;;;;;;2.65;1.40;;;;;;;;;;7334200;19;161884;-18
2022/05/23 13:17:41;;;;;;;1.98;1.30;;;;;;;;;;7331449;19;163417;-18
2022/05/23 13:23:18;;;;;;;2.47;1.27;;;;;;;;;;7330240;19;153545;-21
2022/05/23 13:25:49;;;;;;;2.63;1.17;;;;;;;;;;7331493;19;162122;-19
2022/05/23 13:28:24;;;;;;;5.65;1.35;;;;;;;;;;7332527;19;162434;-17
2022/05/23 13:31:01;;;;;;;4.22;1.40;;;;;;;;;;7329727;19;154147;-18
2022/05/23 13:33:49;;;;;;;4.00;1.38;;;;;;;;;;7331167;19;153546;-18
2022/05/23 13:36:23;;;;;;;4.35;1.10;;;;;;;;;;7331091;19;161959;-18
2022/05/23 13:39:04;;;;;;;5.00;1.33;;;;;;;;;;7332353;19;163142;-17
2022/05/23 13:41:36;;;;;;;1.85;1.20;;;;;;;;;;7332950;19;154025;-18
2022/05/23 13:44:08;;;;;;;2.78;1.00;;;;;;;;;;7331865;19;153489;-17
2022/05/23 13:46:43;;;;;;;46.97;17.10;;;;;;;;;;7331349;19;161941;-18
2022/05/23 13:49:23;;;;;;;126.13;52.53;;;;;;;;;;7329019;19;162346;-19
2022/05/23 13:52:01;;;;;;;81.22;27.95;;;;;;;;;;7330759;19;154078;-17
2022/05/23 13:54:38;;;;;;;39.63;15.25;;;;;;;;;;7330294;19;153655;-18
2022/05/23 13:57:14;;;;;;;31.98;12.07;;;;;;;;;;7330853;19;162552;-18
2022/05/23 14:00:00;;;;;;;32.00;12.18;;;;;;;;;;7331378;19;162305;-18
2022/05/23 14:02:37;;;;;;;27.88;13.77;;;;;;;;;;7329780;19;154068;-19
2022/05/23 14:05:12;;;;;;;32.63;13.48;;;;;;;;;;7332835;19;153549;-18
2022/05/23 14:07:48;;;;;;;31.35;13.93;;;;;;;;;;7327876;19;161807;-18
2022/05/23 14:10:25;;;;;;;38.50;14.63;;;;;;;;;;7324738;19;162481;-18
2022/05/23 14:12:59;;;;;;;30.98;14.80;;;;;;;;;;7331584;19;154250;-19
2022/05/23 14:15:35;;;;;;;39.50;13.73;;;;;;;;;;7346523;19;153390;-18
2022/05/23 14:18:15;;;;;;;40.30;13.68;;;;;;;;;;7345393;19;161968;-17
2022/05/23 14:20:50;;;;;;;33.00;13.70;;;;;;;;;;7346665;19;162414;-18
2022/05/23 14:23:31;;;;;;;34.33;12.68;;;;;;;;;;7343386;19;154910;-18
2022/05/23 14:26:22;;;;;;;39.30;14.77;;;;;;;;;;7346498;19;153729;-18
2022/05/23 14:28:56;;;;;;;34.92;13.63;;;;;;;;;;7340343;19;162004;-18
2022/05/23 14:31:39;;;;;;;35.15;13.82;;;;;;;;;;7342666;19;162554;-18
2022/05/23 14:34:11;;;;;;;;;;;;;;;;;;7345068;19;154289;-19
2022/05/23 14:36:43;;;;;;;34.33;12.68;;;;;;;;;;7346361;19;153856;-21
2022/05/23 14:39:25;;;;;;;29.25;13.27;;;;;;;;;;7343012;19;162116;-18
2022/05/23 14:41:56;;;;;;;28.45;12.88;;;;;;;;;;7345698;19;162405;-17
2022/05/23 14:44:34;;;;;;;27.60;13.17;;;;;;;;;;7345802;19;154087;-18
2022/05/23 14:47:21;;;;;;;28.98;13.13;;;;;;;;;;7341435;19;153826;-17
2022/05/23 14:49:59;;;;;;;32.85;13.85;;;;;;;;;;7343495;19;161952;-18
2022/05/23 14:52:38;;;;;;;31.52;12.85;;;;;;;;;;7345373;19;162192;-17
2022/05/23 14:55:18;;;;;;;32.08;13.27;;;;;;;;;;7338886;19;153765;-17
2022/05/23 15:00:42;;;;;;;27.33;12.80;;;;;;;;;;7343651;19;162133;-17
2022/05/23 15:03:22;;;;;;;30.80;12.52;;;;;;;;;;7342715;19;162617;-17
2022/05/23 15:05:55;;;;;;;26.02;12.60;;;;;;;;;;7343679;19;154408;-17
2022/05/23 15:08:27;;;;;;;24.70;11.77;;;;;;;;;;7340977;19;153780;-17
2022/05/23 15:11:02;;;;;;;29.05;12.68;;;;;;;;;;7343010;19;161916;-17
2022/05/23 15:13:36;;;;;;;28.42;12.60;;;;;;;;;;7343064;19;162520;-18
2022/05/23 15:16:08;;;;;;;25.48;11.30;;;;;;;;;;7343064;19;154260;-18
2022/05/23 15:18:44;;;;;;;27.83;13.15;;;;;;;;;;7344375;19;153609;-18
2022/05/23 15:21:16;;;;;;;29.05;13.35;;;;;;;;;;7343057;19;161489;-18
2022/05/23 15:23:47;;;;;;;24.88;11.43;;;;;;;;;;7340276;19;162685;-17
2022/05/23 15:26:24;;;;;;;20.43;11.13;;;;;;;;;;7336560;19;154171;-17
2022/05/23 15:28:56;;;;;;;25.90;10.50;;;;;;;;;;7332490;19;153575;-17
2022/05/23 15:31:29;;;;;;;20.13;9.13;;;;;;;;;;7334374;19;161779;-18
2022/05/23 15:34:00;;;;;;;22.10;9.85;;;;;;;;;;7335044;19;162355;-18
2022/05/23 15:36:32;;;;;;;23.48;10.00;;;;;;;;;;7335875;19;154048;-18
2022/05/23 15:39:03;;;;;;;17.42;8.82;;;;;;;;;;7335964;19;153917;-19
2022/05/23 15:41:43;;;;;;;25.80;10.88;;;;;;;;;;7335032;19;162015;-18
2022/05/23 15:44:17;;;;;;;19.88;8.00;;;;;;;;;;7336180;19;162414;-18
2022/05/23 15:46:52;;;;;;;17.63;8.80;;;;;;;;;;7335959;19;154083;-22
2022/05/23 15:49:24;;;;;;;18.02;8.00;;;;;;;;;;7334356;19;153649;-18
2022/05/23 15:51:55;;;;;;;18.35;8.23;;;;;;;;;;7336675;19;161858;-18
2022/05/23 15:54:27;;;;;;;21.75;8.57;;;;;;;;;;7335319;19;162384;-19
2022/05/23 15:57:02;;;;;;;13.75;7.47;;;;;;;;;;7335714;19;153965;-18
2022/05/23 15:59:38;;;;;;;17.58;8.15;;;;;;;;;;7334856;19;153656;-18
2022/05/23 16:02:12;;;;;;;16.52;8.45;;;;;;;;;;7336041;19;161846;-18
2022/05/23 16:04:43;;;;;;;16.92;8.05;;;;;;;;;;7335958;19;162480;-16
2022/05/23 16:07:16;;;;;;;17.83;8.00;;;;;;;;;;7329600;19;154308;-18
2022/05/23 16:09:47;;;;;;;19.92;8.00;;;;;;;;;;7328630;19;154481;-17
2022/05/23 16:12:28;;;;;;;20.25;6.65;;;;;;;;;;7331674;19;161942;-17
2022/05/23 16:15:00;;;;;;;16.00;7.13;;;;;;;;;;7328770;19;162167;-18
2022/05/23 16:17:32;;;;;;;18.92;7.07;;;;;;;;;;7330105;19;154050;-19
2022/05/23 16:20:03;;;;;;;17.25;6.70;;;;;;;;;;7333123;19;154448;-17
2022/05/23 16:22:37;;;;;;;14.35;7.60;;;;;;;;;;7335272;19;161930;-18
2022/05/23 16:25:15;;;;;;;16.50;9.35;;;;;;;;;;7333075;19;162411;-17
2022/05/23 16:27:50;;;;;;;17.58;9.35;;;;;;;;;;7334528;19;153969;-18
2022/05/23 16:30:22;;;;;;;15.13;9.65;;;;;;;;;;7332451;19;153589;-17
2022/05/23 16:38:31;;;;;;;17.25;9.50;;;;;;;;;;7329209;19;154145;-17
2022/05/23 16:41:05;;;;;;;22.23;10.38;;;;;;;;;;7332025;19;153837;-18
2022/05/23 16:43:39;;;;;;;17.50;9.57;;;;;;;;;;7331564;19;161980;-17
2022/05/23 16:46:11;;;;;;;19.45;10.70;;;;;;;;;;7330471;19;162565;-17
2022/05/23 16:48:47;;;;;;;14.88;8.00;;;;;;;;;;7330068;19;153991;-17
2022/05/23 16:51:18;;;;;;;15.77;7.70;;;;;;;;;;7330316;19;154591;-19
2022/05/23 16:53:50;;;;;;;12.73;6.38;;;;;;;;;;7330843;19;161806;-18
2022/05/23 16:56:23;;;;;;;10.77;5.63;;;;;;;;;;7331162;19;162382;-18